sensor_id;sensor_type;location;lat;lon;timestamp;temperature;humidity
10883;DHT22;5494;51.796;10.952;2022-10-30T00:01:22;19.80;99.90
10883;DHT22;5494;51.796;10.952;2022-10-30T00:03:51;19.90;99.90
10883;DHT22;5494;51.796;10.952;2022-10-30T00:06:20;19.90;99.90
10883;DHT22;5494;51.796;10.952;2022-10-30T00:08:48;19.90;99.90
10883;DHT22;5494;51.796;10.952;2022-10-30T00:11:17;20.00;99.90
10883;DHT22;5494;51.796;10.952;2022-10-30T00:13:45;20.10;99.90
10883;DHT22;5494;51.796;10.952;2022-10-30T00:16:15;20.00;99.90
10883;DHT22;5494;51.796;10.952;2022-10-30T00:18:44;20.10;99.90
10883;DHT22;5494;51.796;10.952;2022-10-30T00:21:14;20.10;99.90
10883;DHT22;5494;51.796;10.952;2022-10-30T00:23:46;20.10;99.90
10883;DHT22;5494;51.796;10.952;2022-10-30T00:26:17;20.10;99.90
10883;DHT22;5494;51.796;10.952;2022-10-30T00:28:49;20.10;99.90
10883;DHT22;5494;51.796;10.952;2022-10-30T00:31:19;20.10;99.90
10883;DHT22;5494;51.796;10.952;2022-10-30T00:33:49;20.00;99.90
10883;DHT22;5494;51.796;10.952;2022-10-30T00:36:18;20.00;99.90
10883;DHT22;5494;51.796;10.952;2022-10-30T00:38:47;20.00;99.90
10883;DHT22;5494;51.796;10.952;2022-10-30T00:41:22;20.00;99.90
10883;DHT22;5494;51.796;10.952;2022-10-30T00:43:53;20.00;99.90
10883;DHT22;5494;51.796;10.952;2022-10-30T00:46:28;20.00;99.90
10883;DHT22;5494;51.796;10.952;2022-10-30T00:49:02;20.00;99.90
10883;DHT22;5494;51.796;10.952;2022-10-30T00:51:37;20.00;99.90
10883;DHT22;5494;51.796;10.952;2022-10-30T00:54:09;20.00;99.90
10883;DHT22;5494;51.796;10.952;2022-10-30T00:56:41;20.00;99.90
10883;DHT22;5494;51.796;10.952;2022-10-30T00:59:14;19.90;99.90
10883;DHT22;5494;51.796;10.952;2022-10-30T01:01:47;19.90;99.90
10883;DHT22;5494;51.796;10.952;2022-10-30T01:04:18;20.00;99.90
10883;DHT22;5494;51.796;10.952;2022-10-30T01:06:54;20.00;99.90
10883;DHT22;5494;51.796;10.952;2022-10-30T01:09:23;20.00;99.90
10883;DHT22;5494;51.796;10.952;2022-10-30T01:11:52;20.00;99.90
10883;DHT22;5494;51.796;10.952;2022-10-30T01:14:21;20.00;99.90
10883;DHT22;5494;51.796;10.952;2022-10-30T01:16:58;20.00;99.90
10883;DHT22;5494;51.796;10.952;2022-10-30T01:19:47;20.10;99.90
10883;DHT22;5494;51.796;10.952;2022-10-30T01:22:38;20.00;99.90
10883;DHT22;5494;51.796;10.952;2022-10-30T01:25:30;20.00;99.90
10883;DHT22;5494;51.796;10.952;2022-10-30T01:28:17;20.00;99.90
10883;DHT22;5494;51.796;10.952;2022-10-30T01:31:11;20.00;99.90
10883;DHT22;5494;51.796;10.952;2022-10-30T01:33:58;20.00;99.90
10883;DHT22;5494;51.796;10.952;2022-10-30T01:36:36;19.90;99.90
10883;DHT22;5494;51.796;10.952;2022-10-30T01:39:12;19.90;99.90
10883;DHT22;5494;51.796;10.952;2022-10-30T01:41:43;19.90;99.90
10883;DHT22;5494;51.796;10.952;2022-10-30T01:44:15;19.90;99.90
10883;DHT22;5494;51.796;10.952;2022-10-30T01:47:08;20.00;99.90
10883;DHT22;5494;51.796;10.952;2022-10-30T01:52:58;20.00;99.90
10883;DHT22;5494;51.796;10.952;2022-10-30T01:55:39;20.00;99.90
10883;DHT22;5494;51.796;10.952;2022-10-30T01:58:20;20.10;99.90
10883;DHT22;5494;51.796;10.952;2022-10-30T02:00:57;20.10;99.90
10883;DHT22;5494;51.796;10.952;2022-10-30T02:03:26;20.20;99.90
10883;DHT22;5494;51.796;10.952;2022-10-30T02:05:57;20.30;99.90
10883;DHT22;5494;51.796;10.952;2022-10-30T02:08:27;20.30;99.90
10883;DHT22;5494;51.796;10.952;2022-10-30T02:10:57;20.30;99.90
10883;DHT22;5494;51.796;10.952;2022-10-30T02:13:37;20.40;99.90
10883;DHT22;5494;51.796;10.952;2022-10-30T02:16:07;20.40;99.90
10883;DHT22;5494;51.796;10.952;2022-10-30T02:18:37;20.40;99.90
10883;DHT22;5494;51.796;10.952;2022-10-30T02:21:08;20.30;99.90
10883;DHT22;5494;51.796;10.952;2022-10-30T02:23:38;20.30;99.90
10883;DHT22;5494;51.796;10.952;2022-10-30T02:26:07;20.40;99.90
10883;DHT22;5494;51.796;10.952;2022-10-30T02:28:35;20.40;99.90
10883;DHT22;5494;51.796;10.952;2022-10-30T02:31:04;20.40;99.90
10883;DHT22;5494;51.796;10.952;2022-10-30T02:33:33;20.40;99.90
10883;DHT22;5494;51.796;10.952;2022-10-30T02:36:04;20.40;99.90
10883;DHT22;5494;51.796;10.952;2022-10-30T02:38:34;20.30;99.90
10883;DHT22;5494;51.796;10.952;2022-10-30T02:41:03;20.30;99.90
10883;DHT22;5494;51.796;10.952;2022-10-30T02:43:32;20.20;99.90
10883;DHT22;5494;51.796;10.952;2022-10-30T02:46:01;20.10;99.90
10883;DHT22;5494;51.796;10.952;2022-10-30T02:48:30;20.10;99.90
10883;DHT22;5494;51.796;10.952;2022-10-30T02:50:59;20.00;99.90
10883;DHT22;5494;51.796;10.952;2022-10-30T02:53:29;20.00;99.90
10883;DHT22;5494;51.796;10.952;2022-10-30T02:56:03;19.90;99.90
10883;DHT22;5494;51.796;10.952;2022-10-30T02:58:33;20.00;99.90
10883;DHT22;5494;51.796;10.952;2022-10-30T03:01:07;20.00;99.90
10883;DHT22;5494;51.796;10.952;2022-10-30T03:03:37;20.10;99.90
10883;DHT22;5494;51.796;10.952;2022-10-30T03:06:09;20.10;99.90
10883;DHT22;5494;51.796;10.952;2022-10-30T03:08:39;20.00;99.90
10883;DHT22;5494;51.796;10.952;2022-10-30T03:11:11;19.90;99.90
10883;DHT22;5494;51.796;10.952;2022-10-30T03:13:43;19.80;99.90
10883;DHT22;5494;51.796;10.952;2022-10-30T03:16:14;19.70;99.90
10883;DHT22;5494;51.796;10.952;2022-10-30T03:18:45;19.60;99.90
10883;DHT22;5494;51.796;10.952;2022-10-30T03:21:18;19.60;99.90
10883;DHT22;5494;51.796;10.952;2022-10-30T03:23:48;19.60;99.90
10883;DHT22;5494;51.796;10.952;2022-10-30T03:26:19;19.60;99.90
10883;DHT22;5494;51.796;10.952;2022-10-30T03:28:51;19.70;99.90
10883;DHT22;5494;51.796;10.952;2022-10-30T03:31:20;19.70;99.90
10883;DHT22;5494;51.796;10.952;2022-10-30T03:34:07;19.90;99.90
10883;DHT22;5494;51.796;10.952;2022-10-30T03:36:35;19.90;99.90
10883;DHT22;5494;51.796;10.952;2022-10-30T03:39:04;20.10;99.90
10883;DHT22;5494;51.796;10.952;2022-10-30T03:41:35;20.10;99.90
10883;DHT22;5494;51.796;10.952;2022-10-30T03:44:03;20.30;99.90
10883;DHT22;5494;51.796;10.952;2022-10-30T03:46:32;20.20;99.90
10883;DHT22;5494;51.796;10.952;2022-10-30T03:49:15;20.10;99.90
10883;DHT22;5494;51.796;10.952;2022-10-30T03:51:43;20.10;99.90
10883;DHT22;5494;51.796;10.952;2022-10-30T03:54:12;20.00;99.90
10883;DHT22;5494;51.796;10.952;2022-10-30T03:56:43;19.90;99.90
10883;DHT22;5494;51.796;10.952;2022-10-30T03:59:14;19.80;99.90
10883;DHT22;5494;51.796;10.952;2022-10-30T04:01:53;19.80;99.90
10883;DHT22;5494;51.796;10.952;2022-10-30T04:04:22;19.80;99.90
10883;DHT22;5494;51.796;10.952;2022-10-30T04:06:51;19.80;99.90
10883;DHT22;5494;51.796;10.952;2022-10-30T04:09:22;19.80;99.90
10883;DHT22;5494;51.796;10.952;2022-10-30T04:11:52;19.80;99.90
10883;DHT22;5494;51.796;10.952;2022-10-30T04:14:21;19.90;99.90
10883;DHT22;5494;51.796;10.952;2022-10-30T04:16:49;19.80;99.90
10883;DHT22;5494;51.796;10.952;2022-10-30T04:19:18;19.80;99.90
10883;DHT22;5494;51.796;10.952;2022-10-30T04:21:47;19.90;99.90
10883;DHT22;5494;51.796;10.952;2022-10-30T04:24:18;19.90;99.90
10883;DHT22;5494;51.796;10.952;2022-10-30T04:26:52;19.90;99.90
10883;DHT22;5494;51.796;10.952;2022-10-30T04:29:22;19.80;99.90
10883;DHT22;5494;51.796;10.952;2022-10-30T04:31:50;19.90;99.90
10883;DHT22;5494;51.796;10.952;2022-10-30T04:34:19;19.90;99.90
10883;DHT22;5494;51.796;10.952;2022-10-30T04:36:47;19.90;99.90
10883;DHT22;5494;51.796;10.952;2022-10-30T04:39:16;19.90;99.90
10883;DHT22;5494;51.796;10.952;2022-10-30T04:41:48;19.80;99.90
10883;DHT22;5494;51.796;10.952;2022-10-30T04:44:24;19.80;99.90
10883;DHT22;5494;51.796;10.952;2022-10-30T04:46:54;19.80;99.90
10883;DHT22;5494;51.796;10.952;2022-10-30T04:49:23;19.80;99.90
10883;DHT22;5494;51.796;10.952;2022-10-30T04:51:52;19.70;99.90
10883;DHT22;5494;51.796;10.952;2022-10-30T04:54:21;19.70;99.90
10883;DHT22;5494;51.796;10.952;2022-10-30T04:56:51;19.70;99.90
10883;DHT22;5494;51.796;10.952;2022-10-30T04:59:20;19.70;99.90
10883;DHT22;5494;51.796;10.952;2022-10-30T05:01:53;19.80;99.90
10883;DHT22;5494;51.796;10.952;2022-10-30T05:04:22;19.70;99.90
10883;DHT22;5494;51.796;10.952;2022-10-30T05:06:51;19.80;99.90
10883;DHT22;5494;51.796;10.952;2022-10-30T05:09:19;19.80;99.90
10883;DHT22;5494;51.796;10.952;2022-10-30T05:11:48;19.80;99.90
10883;DHT22;5494;51.796;10.952;2022-10-30T05:14:21;19.70;99.90
10883;DHT22;5494;51.796;10.952;2022-10-30T05:16:49;19.70;99.90
10883;DHT22;5494;51.796;10.952;2022-10-30T05:19:19;19.70;99.90
10883;DHT22;5494;51.796;10.952;2022-10-30T05:21:52;19.70;99.90
10883;DHT22;5494;51.796;10.952;2022-10-30T05:24:22;19.60;99.90
10883;DHT22;5494;51.796;10.952;2022-10-30T05:26:51;19.60;99.90
10883;DHT22;5494;51.796;10.952;2022-10-30T05:29:20;19.60;99.90
10883;DHT22;5494;51.796;10.952;2022-10-30T05:31:49;19.50;99.90
10883;DHT22;5494;51.796;10.952;2022-10-30T05:34:38;19.50;99.90
10883;DHT22;5494;51.796;10.952;2022-10-30T05:37:07;19.40;99.90
10883;DHT22;5494;51.796;10.952;2022-10-30T05:39:36;19.30;99.90
10883;DHT22;5494;51.796;10.952;2022-10-30T05:42:11;19.20;99.90
10883;DHT22;5494;51.796;10.952;2022-10-30T05:44:42;19.40;99.90
10883;DHT22;5494;51.796;10.952;2022-10-30T05:47:28;19.30;99.90
10883;DHT22;5494;51.796;10.952;2022-10-30T05:49:58;19.30;99.90
10883;DHT22;5494;51.796;10.952;2022-10-30T05:52:27;19.20;99.90
10883;DHT22;5494;51.796;10.952;2022-10-30T05:54:58;19.10;99.90
10883;DHT22;5494;51.796;10.952;2022-10-30T05:57:35;19.10;99.90
10883;DHT22;5494;51.796;10.952;2022-10-30T06:00:06;18.90;99.90
10883;DHT22;5494;51.796;10.952;2022-10-30T06:02:41;18.90;99.90
10883;DHT22;5494;51.796;10.952;2022-10-30T06:05:13;18.90;99.90
10883;DHT22;5494;51.796;10.952;2022-10-30T06:07:42;18.80;99.90
10883;DHT22;5494;51.796;10.952;2022-10-30T06:10:11;18.70;99.90
10883;DHT22;5494;51.796;10.952;2022-10-30T06:12:51;18.70;99.90
10883;DHT22;5494;51.796;10.952;2022-10-30T06:15:39;18.60;99.90
10883;DHT22;5494;51.796;10.952;2022-10-30T06:18:07;18.50;99.90
10883;DHT22;5494;51.796;10.952;2022-10-30T06:20:41;18.50;99.90
10883;DHT22;5494;51.796;10.952;2022-10-30T06:23:37;18.50;99.90
10883;DHT22;5494;51.796;10.952;2022-10-30T06:26:23;18.50;99.90
10883;DHT22;5494;51.796;10.952;2022-10-30T06:28:55;18.50;99.90
10883;DHT22;5494;51.796;10.952;2022-10-30T06:31:24;18.50;99.90
10883;DHT22;5494;51.796;10.952;2022-10-30T06:33:53;18.40;99.90
10883;DHT22;5494;51.796;10.952;2022-10-30T06:36:23;18.50;99.90
10883;DHT22;5494;51.796;10.952;2022-10-30T06:38:52;18.50;99.90
10883;DHT22;5494;51.796;10.952;2022-10-30T06:41:24;18.40;99.90
10883;DHT22;5494;51.796;10.952;2022-10-30T06:44:15;18.30;99.90
10883;DHT22;5494;51.796;10.952;2022-10-30T06:46:44;18.30;99.90
10883;DHT22;5494;51.796;10.952;2022-10-30T06:49:12;18.30;99.90
10883;DHT22;5494;51.796;10.952;2022-10-30T06:51:42;18.20;99.90
10883;DHT22;5494;51.796;10.952;2022-10-30T06:54:11;18.30;99.90
10883;DHT22;5494;51.796;10.952;2022-10-30T06:56:40;18.40;99.90
10883;DHT22;5494;51.796;10.952;2022-10-30T06:59:27;18.50;99.90
10883;DHT22;5494;51.796;10.952;2022-10-30T07:02:22;18.60;99.90
10883;DHT22;5494;51.796;10.952;2022-10-30T07:04:54;18.80;99.90
10883;DHT22;5494;51.796;10.952;2022-10-30T07:07:24;19.00;99.90
10883;DHT22;5494;51.796;10.952;2022-10-30T07:09:53;19.10;99.90
10883;DHT22;5494;51.796;10.952;2022-10-30T07:12:35;19.40;99.90
10883;DHT22;5494;51.796;10.952;2022-10-30T07:15:21;19.60;99.90
10883;DHT22;5494;51.796;10.952;2022-10-30T07:18:00;19.80;99.90
10883;DHT22;5494;51.796;10.952;2022-10-30T07:20:34;19.90;99.90
10883;DHT22;5494;51.796;10.952;2022-10-30T07:23:04;19.70;99.90
10883;DHT22;5494;51.796;10.952;2022-10-30T07:25:33;19.70;99.90
10883;DHT22;5494;51.796;10.952;2022-10-30T07:28:07;19.80;99.90
10883;DHT22;5494;51.796;10.952;2022-10-30T07:31:03;19.90;99.90
10883;DHT22;5494;51.796;10.952;2022-10-30T07:33:50;20.10;99.90
10883;DHT22;5494;51.796;10.952;2022-10-30T07:36:27;20.40;99.90
10883;DHT22;5494;51.796;10.952;2022-10-30T07:39:16;20.60;99.90
10883;DHT22;5494;51.796;10.952;2022-10-30T07:42:07;20.90;99.90
10883;DHT22;5494;51.796;10.952;2022-10-30T07:44:54;21.10;99.90
10883;DHT22;5494;51.796;10.952;2022-10-30T07:47:33;21.50;99.90
10883;DHT22;5494;51.796;10.952;2022-10-30T07:50:13;21.80;99.90
10883;DHT22;5494;51.796;10.952;2022-10-30T07:52:43;21.90;99.90
10883;DHT22;5494;51.796;10.952;2022-10-30T07:55:14;22.40;99.90
10883;DHT22;5494;51.796;10.952;2022-10-30T07:57:43;22.80;99.90
10883;DHT22;5494;51.796;10.952;2022-10-30T08:00:32;23.10;99.90
10883;DHT22;5494;51.796;10.952;2022-10-30T08:03:21;23.40;99.90
10883;DHT22;5494;51.796;10.952;2022-10-30T08:05:57;23.70;99.90
10883;DHT22;5494;51.796;10.952;2022-10-30T08:08:30;24.00;99.90
10883;DHT22;5494;51.796;10.952;2022-10-30T08:11:25;24.10;99.90
10883;DHT22;5494;51.796;10.952;2022-10-30T08:13:54;24.30;99.90
10883;DHT22;5494;51.796;10.952;2022-10-30T08:16:23;24.30;99.90
10883;DHT22;5494;51.796;10.952;2022-10-30T08:18:52;24.40;99.90
10883;DHT22;5494;51.796;10.952;2022-10-30T08:21:24;24.80;99.90
10883;DHT22;5494;51.796;10.952;2022-10-30T08:24:04;24.90;99.90
10883;DHT22;5494;51.796;10.952;2022-10-30T08:26:35;25.10;99.90
10883;DHT22;5494;51.796;10.952;2022-10-30T08:29:03;25.40;99.90
10883;DHT22;5494;51.796;10.952;2022-10-30T08:31:32;25.60;99.90
10883;DHT22;5494;51.796;10.952;2022-10-30T08:34:00;25.40;99.90
10883;DHT22;5494;51.796;10.952;2022-10-30T08:36:38;25.00;99.90
10883;DHT22;5494;51.796;10.952;2022-10-30T08:39:11;24.90;99.90
10883;DHT22;5494;51.796;10.952;2022-10-30T08:41:56;25.20;99.90
10883;DHT22;5494;51.796;10.952;2022-10-30T08:44:29;25.80;99.90
10883;DHT22;5494;51.796;10.952;2022-10-30T08:47:12;26.20;99.90
10883;DHT22;5494;51.796;10.952;2022-10-30T08:49:41;26.20;99.90
10883;DHT22;5494;51.796;10.952;2022-10-30T08:52:10;26.40;99.90
10883;DHT22;5494;51.796;10.952;2022-10-30T08:54:39;26.50;99.90
10883;DHT22;5494;51.796;10.952;2022-10-30T08:57:09;26.70;99.90
10883;DHT22;5494;51.796;10.952;2022-10-30T08:59:38;26.80;99.90
10883;DHT22;5494;51.796;10.952;2022-10-30T09:02:12;26.60;99.90
10883;DHT22;5494;51.796;10.952;2022-10-30T09:04:59;26.30;99.90
10883;DHT22;5494;51.796;10.952;2022-10-30T09:07:55;26.20;99.90
10883;DHT22;5494;51.796;10.952;2022-10-30T09:10:57;26.40;99.90
10883;DHT22;5494;51.796;10.952;2022-10-30T09:13:29;26.60;99.90
10883;DHT22;5494;51.796;10.952;2022-10-30T09:15:59;26.40;99.90
10883;DHT22;5494;51.796;10.952;2022-10-30T09:18:30;26.50;99.90
10883;DHT22;5494;51.796;10.952;2022-10-30T09:20:59;26.50;99.90
10883;DHT22;5494;51.796;10.952;2022-10-30T09:23:35;26.60;99.90
10883;DHT22;5494;51.796;10.952;2022-10-30T09:26:23;26.60;99.90
10883;DHT22;5494;51.796;10.952;2022-10-30T09:28:59;26.40;99.90
10883;DHT22;5494;51.796;10.952;2022-10-30T09:31:47;26.20;99.90
10883;DHT22;5494;51.796;10.952;2022-10-30T09:34:18;26.30;99.90
10883;DHT22;5494;51.796;10.952;2022-10-30T09:36:54;26.20;99.90
10883;DHT22;5494;51.796;10.952;2022-10-30T09:39:23;26.30;99.90
10883;DHT22;5494;51.796;10.952;2022-10-30T09:42:09;26.20;99.90
10883;DHT22;5494;51.796;10.952;2022-10-30T09:45:22;26.20;99.90
10883;DHT22;5494;51.796;10.952;2022-10-30T09:48:08;26.20;99.90
10883;DHT22;5494;51.796;10.952;2022-10-30T09:51:40;26.30;99.90
10883;DHT22;5494;51.796;10.952;2022-10-30T09:54:26;26.40;99.80
10883;DHT22;5494;51.796;10.952;2022-10-30T09:57:10;26.20;99.80
10883;DHT22;5494;51.796;10.952;2022-10-30T09:59:56;26.10;99.90
10883;DHT22;5494;51.796;10.952;2022-10-30T10:02:51;26.20;99.90
10883;DHT22;5494;51.796;10.952;2022-10-30T10:05:40;26.20;99.50
10883;DHT22;5494;51.796;10.952;2022-10-30T10:08:33;26.20;99.60
10883;DHT22;5494;51.796;10.952;2022-10-30T10:11:29;26.20;99.90
10883;DHT22;5494;51.796;10.952;2022-10-30T10:14:05;26.20;99.80
10883;DHT22;5494;51.796;10.952;2022-10-30T10:16:39;26.20;99.80
10883;DHT22;5494;51.796;10.952;2022-10-30T10:19:15;26.30;99.50
10883;DHT22;5494;51.796;10.952;2022-10-30T10:21:52;26.50;99.40
10883;DHT22;5494;51.796;10.952;2022-10-30T10:24:27;26.70;99.10
10883;DHT22;5494;51.796;10.952;2022-10-30T10:27:03;26.90;98.90
10883;DHT22;5494;51.796;10.952;2022-10-30T10:29:49;26.90;99.00
10883;DHT22;5494;51.796;10.952;2022-10-30T10:32:41;26.90;98.80
10883;DHT22;5494;51.796;10.952;2022-10-30T10:35:36;26.90;98.20
10883;DHT22;5494;51.796;10.952;2022-10-30T10:38:28;26.70;98.60
10883;DHT22;5494;51.796;10.952;2022-10-30T10:41:09;26.60;98.90
10883;DHT22;5494;51.796;10.952;2022-10-30T10:43:59;26.30;99.20
10883;DHT22;5494;51.796;10.952;2022-10-30T10:46:57;25.90;99.90
10883;DHT22;5494;51.796;10.952;2022-10-30T10:49:49;25.90;99.90
10883;DHT22;5494;51.796;10.952;2022-10-30T10:52:36;26.00;99.90
10883;DHT22;5494;51.796;10.952;2022-10-30T10:55:14;26.10;99.90
10883;DHT22;5494;51.796;10.952;2022-10-30T10:57:46;26.20;99.90
10883;DHT22;5494;51.796;10.952;2022-10-30T11:00:16;26.10;99.90
10883;DHT22;5494;51.796;10.952;2022-10-30T11:02:53;25.90;99.90
10883;DHT22;5494;51.796;10.952;2022-10-30T11:05:32;25.80;99.90
10883;DHT22;5494;51.796;10.952;2022-10-30T11:08:10;25.80;99.90
10883;DHT22;5494;51.796;10.952;2022-10-30T11:10:42;25.80;99.90
10883;DHT22;5494;51.796;10.952;2022-10-30T11:13:12;25.90;98.60
10883;DHT22;5494;51.796;10.952;2022-10-30T11:15:51;25.90;98.20
10883;DHT22;5494;51.796;10.952;2022-10-30T11:18:25;25.90;98.60
10883;DHT22;5494;51.796;10.952;2022-10-30T11:20:59;25.80;99.10
10883;DHT22;5494;51.796;10.952;2022-10-30T11:23:32;25.80;99.60
10883;DHT22;5494;51.796;10.952;2022-10-30T11:26:30;25.70;99.90
10883;DHT22;5494;51.796;10.952;2022-10-30T11:29:04;25.60;99.90
10883;DHT22;5494;51.796;10.952;2022-10-30T11:31:40;25.60;99.90
10883;DHT22;5494;51.796;10.952;2022-10-30T11:34:24;25.60;99.90
10883;DHT22;5494;51.796;10.952;2022-10-30T11:36:59;25.30;99.70
10883;DHT22;5494;51.796;10.952;2022-10-30T11:39:30;25.30;99.90
10883;DHT22;5494;51.796;10.952;2022-10-30T11:42:05;25.30;99.90
10883;DHT22;5494;51.796;10.952;2022-10-30T11:44:47;25.30;99.90
10883;DHT22;5494;51.796;10.952;2022-10-30T11:47:20;25.40;99.00
10883;DHT22;5494;51.796;10.952;2022-10-30T11:49:57;25.40;99.50
10883;DHT22;5494;51.796;10.952;2022-10-30T11:52:28;25.30;99.70
10883;DHT22;5494;51.796;10.952;2022-10-30T11:55:12;25.20;99.90
10883;DHT22;5494;51.796;10.952;2022-10-30T11:57:46;25.10;99.90
10883;DHT22;5494;51.796;10.952;2022-10-30T12:00:19;25.00;99.90
10883;DHT22;5494;51.796;10.952;2022-10-30T12:02:52;25.00;99.90
10883;DHT22;5494;51.796;10.952;2022-10-30T12:05:33;25.00;99.90
10883;DHT22;5494;51.796;10.952;2022-10-30T12:08:16;25.00;99.90
10883;DHT22;5494;51.796;10.952;2022-10-30T12:10:56;25.00;99.90
10883;DHT22;5494;51.796;10.952;2022-10-30T12:13:32;25.00;99.80
10883;DHT22;5494;51.796;10.952;2022-10-30T12:16:13;24.90;99.90
10883;DHT22;5494;51.796;10.952;2022-10-30T12:18:52;24.90;99.90
10883;DHT22;5494;51.796;10.952;2022-10-30T12:21:29;24.80;99.90
10883;DHT22;5494;51.796;10.952;2022-10-30T12:24:15;24.70;99.90
10883;DHT22;5494;51.796;10.952;2022-10-30T12:26:48;24.80;99.70
10883;DHT22;5494;51.796;10.952;2022-10-30T12:29:23;24.80;99.70
10883;DHT22;5494;51.796;10.952;2022-10-30T12:32:30;24.70;99.40
10883;DHT22;5494;51.796;10.952;2022-10-30T12:35:38;24.60;99.70
10883;DHT22;5494;51.796;10.952;2022-10-30T12:38:16;24.50;99.90
10883;DHT22;5494;51.796;10.952;2022-10-30T12:40:59;24.60;99.90
10883;DHT22;5494;51.796;10.952;2022-10-30T12:43:34;24.50;99.90
10883;DHT22;5494;51.796;10.952;2022-10-30T12:46:14;24.30;99.90
10883;DHT22;5494;51.796;10.952;2022-10-30T12:48:55;24.20;99.90
10883;DHT22;5494;51.796;10.952;2022-10-30T12:51:34;24.10;99.90
10883;DHT22;5494;51.796;10.952;2022-10-30T12:54:16;24.00;99.90
10883;DHT22;5494;51.796;10.952;2022-10-30T12:57:02;23.80;99.90
10883;DHT22;5494;51.796;10.952;2022-10-30T12:59:42;23.70;99.90
10883;DHT22;5494;51.796;10.952;2022-10-30T13:02:26;23.60;99.90
10883;DHT22;5494;51.796;10.952;2022-10-30T13:05:06;23.50;99.90
10883;DHT22;5494;51.796;10.952;2022-10-30T13:07:54;23.40;99.90
10883;DHT22;5494;51.796;10.952;2022-10-30T13:10:34;23.40;99.90
10883;DHT22;5494;51.796;10.952;2022-10-30T13:13:12;23.40;99.90
10883;DHT22;5494;51.796;10.952;2022-10-30T13:15:47;23.40;99.90
10883;DHT22;5494;51.796;10.952;2022-10-30T13:18:20;23.50;99.90
10883;DHT22;5494;51.796;10.952;2022-10-30T13:21:04;23.70;99.90
10883;DHT22;5494;51.796;10.952;2022-10-30T13:23:50;23.70;99.90
10883;DHT22;5494;51.796;10.952;2022-10-30T13:26:29;23.90;99.90
10883;DHT22;5494;51.796;10.952;2022-10-30T13:29:13;24.00;99.90
10883;DHT22;5494;51.796;10.952;2022-10-30T13:31:59;24.10;99.90
10883;DHT22;5494;51.796;10.952;2022-10-30T13:34:45;24.10;99.90
10883;DHT22;5494;51.796;10.952;2022-10-30T13:37:22;24.10;99.90
10883;DHT22;5494;51.796;10.952;2022-10-30T13:40:09;24.10;99.90
10883;DHT22;5494;51.796;10.952;2022-10-30T13:42:55;24.00;99.90
10883;DHT22;5494;51.796;10.952;2022-10-30T13:45:50;24.10;99.90
10883;DHT22;5494;51.796;10.952;2022-10-30T13:48:39;24.20;99.90
10883;DHT22;5494;51.796;10.952;2022-10-30T13:51:31;24.20;99.90
10883;DHT22;5494;51.796;10.952;2022-10-30T13:54:10;24.20;99.90
10883;DHT22;5494;51.796;10.952;2022-10-30T13:56:46;24.10;99.90
10883;DHT22;5494;51.796;10.952;2022-10-30T13:59:24;23.90;99.90
10883;DHT22;5494;51.796;10.952;2022-10-30T14:02:02;23.70;99.90
10883;DHT22;5494;51.796;10.952;2022-10-30T14:04:46;23.50;99.90
10883;DHT22;5494;51.796;10.952;2022-10-30T14:07:26;23.50;99.90
10883;DHT22;5494;51.796;10.952;2022-10-30T14:10:06;23.60;99.90
10883;DHT22;5494;51.796;10.952;2022-10-30T14:12:49;23.70;99.90
10883;DHT22;5494;51.796;10.952;2022-10-30T14:15:26;23.60;99.90
10883;DHT22;5494;51.796;10.952;2022-10-30T14:18:26;23.60;99.90
10883;DHT22;5494;51.796;10.952;2022-10-30T14:21:41;23.70;99.90
10883;DHT22;5494;51.796;10.952;2022-10-30T14:24:20;24.00;99.90
10883;DHT22;5494;51.796;10.952;2022-10-30T14:26:53;24.00;99.90
10883;DHT22;5494;51.796;10.952;2022-10-30T14:29:40;24.00;99.90
10883;DHT22;5494;51.796;10.952;2022-10-30T14:32:38;23.90;99.90
10883;DHT22;5494;51.796;10.952;2022-10-30T14:35:37;23.90;99.90
10883;DHT22;5494;51.796;10.952;2022-10-30T14:38:34;23.90;99.90
10883;DHT22;5494;51.796;10.952;2022-10-30T14:47:42;23.40;99.90
10883;DHT22;5494;51.796;10.952;2022-10-30T14:50:32;23.40;99.90
10883;DHT22;5494;51.796;10.952;2022-10-30T14:53:19;23.20;99.90
10883;DHT22;5494;51.796;10.952;2022-10-30T14:56:02;23.00;99.90
10883;DHT22;5494;51.796;10.952;2022-10-30T14:58:36;22.90;99.90
10883;DHT22;5494;51.796;10.952;2022-10-30T15:01:27;23.00;99.90
10883;DHT22;5494;51.796;10.952;2022-10-30T15:04:14;22.50;99.90
10883;DHT22;5494;51.796;10.952;2022-10-30T15:07:07;22.80;99.90
10883;DHT22;5494;51.796;10.952;2022-10-30T15:09:57;22.60;99.90
10883;DHT22;5494;51.796;10.952;2022-10-30T15:12:47;22.40;99.90
10883;DHT22;5494;51.796;10.952;2022-10-30T15:15:33;22.30;99.90
10883;DHT22;5494;51.796;10.952;2022-10-30T15:18:06;22.10;99.90
10883;DHT22;5494;51.796;10.952;2022-10-30T15:20:37;22.00;99.90
10883;DHT22;5494;51.796;10.952;2022-10-30T15:23:14;22.00;99.90
10883;DHT22;5494;51.796;10.952;2022-10-30T15:25:50;21.90;99.90
10883;DHT22;5494;51.796;10.952;2022-10-30T15:28:24;21.70;99.90
10883;DHT22;5494;51.796;10.952;2022-10-30T15:31:00;21.70;99.90
10883;DHT22;5494;51.796;10.952;2022-10-30T15:33:32;21.60;99.90
10883;DHT22;5494;51.796;10.952;2022-10-30T15:36:04;21.50;99.90
10883;DHT22;5494;51.796;10.952;2022-10-30T15:39:02;21.40;99.90
10883;DHT22;5494;51.796;10.952;2022-10-30T15:41:41;21.30;99.90
10883;DHT22;5494;51.796;10.952;2022-10-30T15:44:18;21.10;99.90
10883;DHT22;5494;51.796;10.952;2022-10-30T15:46:50;21.00;99.90
10883;DHT22;5494;51.796;10.952;2022-10-30T15:49:28;20.90;99.90
10883;DHT22;5494;51.796;10.952;2022-10-30T15:52:00;20.80;99.90
10883;DHT22;5494;51.796;10.952;2022-10-30T15:54:33;20.70;99.90
10883;DHT22;5494;51.796;10.952;2022-10-30T15:57:02;20.70;99.90
10883;DHT22;5494;51.796;10.952;2022-10-30T15:59:56;20.50;99.90
10883;DHT22;5494;51.796;10.952;2022-10-30T16:02:27;20.40;99.90
10883;DHT22;5494;51.796;10.952;2022-10-30T16:04:56;20.40;99.90
10883;DHT22;5494;51.796;10.952;2022-10-30T16:07:26;20.40;99.90
10883;DHT22;5494;51.796;10.952;2022-10-30T16:09:59;20.30;99.90
10883;DHT22;5494;51.796;10.952;2022-10-30T16:12:30;20.20;99.90
10883;DHT22;5494;51.796;10.952;2022-10-30T16:15:04;20.00;99.90
10883;DHT22;5494;51.796;10.952;2022-10-30T16:17:35;19.90;99.90
10883;DHT22;5494;51.796;10.952;2022-10-30T16:20:04;19.80;99.90
10883;DHT22;5494;51.796;10.952;2022-10-30T16:22:36;19.80;99.90
10883;DHT22;5494;51.796;10.952;2022-10-30T16:25:09;19.70;99.90
10883;DHT22;5494;51.796;10.952;2022-10-30T16:27:42;19.70;99.90
10883;DHT22;5494;51.796;10.952;2022-10-30T16:30:13;19.70;99.90
10883;DHT22;5494;51.796;10.952;2022-10-30T16:32:47;19.70;99.90
10883;DHT22;5494;51.796;10.952;2022-10-30T16:35:22;19.80;99.90
10883;DHT22;5494;51.796;10.952;2022-10-30T16:37:52;19.80;99.90
10883;DHT22;5494;51.796;10.952;2022-10-30T16:40:26;19.70;99.90